createdAt,value
2018-02-18T00:00:48.887Z,97.10
2018-02-18T00:01:48.924Z,96.44
2018-02-18T00:03:41.897Z,96.30
2018-02-18T00:04:41.942Z,97.01
2018-02-18T00:06:34.940Z,96.78
2018-02-18T00:07:34.973Z,96.91
2018-02-18T00:09:27.942Z,96.96
2018-02-18T00:10:27.996Z,96.44
2018-02-18T00:12:20.984Z,96.44
2018-02-18T00:13:21.020Z,96.44
2018-02-18T00:15:13.990Z,96.06
2018-02-18T00:16:14.045Z,96.25
2018-02-18T00:18:07.040Z,95.50
2018-02-18T00:19:07.071Z,95.21
2018-02-18T00:21:00.063Z,94.74
2018-02-18T00:22:00.093Z,94.56
2018-02-18T00:23:53.064Z,94.65
2018-02-18T00:24:53.115Z,94.46
2018-02-18T00:26:46.105Z,94.74
2018-02-18T00:27:46.140Z,94.74
2018-02-18T00:29:39.107Z,94.27
2018-02-18T00:30:39.162Z,93.89
2018-02-18T00:32:32.152Z,93.51
2018-02-18T00:33:32.180Z,93.51
2018-02-18T00:35:25.152Z,93.89
2018-02-18T00:36:25.212Z,93.51
2018-02-18T00:38:18.200Z,94.08
2018-02-18T00:39:18.230Z,94.18
2018-02-18T00:41:11.217Z,94.18
2018-02-18T00:42:11.248Z,94.56
2018-02-18T00:44:04.236Z,94.84
2018-02-18T00:45:04.273Z,94.93
2018-02-18T00:46:57.260Z,94.37
2018-02-18T00:47:57.295Z,94.46
2018-02-18T00:49:50.269Z,94.65
2018-02-18T00:50:50.315Z,94.65
2018-02-18T00:52:43.332Z,94.65
2018-02-18T00:53:43.370Z,95.40
2018-02-18T00:55:36.321Z,94.74
2018-02-18T00:56:36.370Z,94.65
2018-02-18T00:58:29.362Z,94.84
2018-02-18T00:59:29.391Z,95.12
2018-02-18T01:01:22.381Z,94.74
2018-02-18T01:02:22.433Z,94.84
2018-02-18T01:04:15.398Z,95.21
2018-02-18T01:05:15.438Z,94.74
2018-02-18T01:07:08.422Z,95.03
2018-02-18T01:08:08.464Z,95.03
2018-02-18T01:10:01.424Z,94.93
2018-02-18T01:11:01.491Z,94.65
2018-02-18T01:12:54.464Z,95.03
2018-02-18T01:13:54.498Z,95.31
2018-02-18T01:15:47.483Z,95.87
2018-02-18T01:16:47.595Z,95.40
2018-02-18T01:18:40.528Z,95.59
2018-02-18T01:19:40.570Z,94.84
2018-02-18T01:21:33.548Z,94.84
2018-02-18T01:22:33.632Z,95.03
2018-02-18T01:24:26.575Z,95.03
2018-02-18T01:25:26.600Z,95.21
2018-02-18T01:27:19.593Z,94.65
2018-02-18T01:28:19.623Z,94.74
2018-02-18T01:30:12.591Z,95.40
2018-02-18T01:31:12.645Z,95.03
2018-02-18T01:33:05.651Z,95.03
2018-02-18T01:34:05.683Z,95.03
2018-02-18T01:35:58.651Z,94.93
2018-02-18T01:36:58.703Z,95.40
2018-02-18T01:38:52.202Z,95.40
2018-02-18T01:39:52.251Z,94.56
2018-02-18T01:41:45.222Z,95.59
2018-02-18T01:42:45.255Z,95.59
2018-02-18T01:44:38.220Z,94.93
2018-02-18T01:45:38.274Z,94.65
2018-02-18T01:47:31.264Z,94.84
2018-02-18T01:48:31.293Z,95.12
2018-02-18T01:50:24.279Z,95.03
2018-02-18T01:51:24.326Z,94.65
2018-02-18T01:53:17.306Z,94.74
2018-02-18T01:54:17.366Z,94.74
2018-02-18T01:56:10.307Z,94.74
2018-02-18T01:57:10.368Z,95.03
2018-02-18T01:59:03.350Z,95.03
2018-02-18T02:00:03.381Z,94.56
2018-02-18T02:01:56.378Z,95.21
2018-02-18T02:02:56.402Z,94.93
2018-02-18T02:04:49.375Z,94.93
2018-02-18T02:05:49.485Z,95.03
2018-02-18T02:07:42.437Z,95.40
2018-02-18T02:08:42.450Z,94.93
2018-02-18T02:10:35.421Z,94.08
2018-02-18T02:11:35.492Z,94.18
2018-02-18T02:13:28.465Z,94.84
2018-02-18T02:14:28.519Z,94.56
2018-02-18T02:16:21.467Z,94.74
2018-02-18T02:17:21.520Z,94.46
2018-02-18T02:19:14.512Z,94.37
2018-02-18T02:20:14.545Z,93.94
2018-02-18T02:22:07.537Z,94.27
2018-02-18T02:23:07.581Z,94.93
2018-02-18T02:25:00.544Z,94.74
2018-02-18T02:26:00.595Z,94.74
2018-02-18T02:27:53.584Z,94.18
2018-02-18T02:28:53.616Z,94.41
2018-02-18T02:30:46.593Z,95.12
2018-02-18T02:31:46.656Z,95.03
2018-02-18T02:33:39.624Z,94.60
2018-02-18T02:34:39.657Z,94.65
2018-02-18T02:36:32.627Z,94.70
2018-02-18T02:37:32.679Z,94.56
2018-02-18T02:39:25.665Z,94.60
2018-02-18T02:40:25.697Z,94.98
2018-02-18T02:42:18.668Z,94.79
2018-02-18T02:43:18.733Z,94.70
2018-02-18T02:45:11.711Z,94.70
2018-02-18T02:46:11.744Z,94.89
2018-02-18T02:48:04.731Z,94.98
2018-02-18T02:49:04.761Z,95.26
2018-02-18T02:50:57.730Z,94.03
2018-02-18T02:51:57.783Z,94.32
2018-02-18T02:53:50.774Z,94.03
2018-02-18T02:54:50.802Z,94.03
2018-02-18T02:56:43.782Z,94.13
2018-02-18T02:57:43.846Z,94.13
2018-02-18T02:59:36.927Z,94.51
2018-02-18T03:00:36.849Z,94.60
2018-02-18T03:02:29.817Z,94.22
2018-02-18T03:03:29.870Z,94.03
2018-02-18T03:05:22.859Z,92.14
2018-02-18T03:06:22.891Z,92.24
2018-02-18T03:08:15.882Z,92.99
2018-02-18T03:09:15.909Z,92.61
2018-02-18T03:11:08.878Z,93.28
2018-02-18T03:12:08.950Z,93.84
2018-02-18T03:14:01.939Z,93.56
2018-02-18T03:15:01.950Z,93.09
2018-02-18T03:16:54.943Z,92.99
2018-02-18T03:17:54.978Z,93.37
2018-02-18T03:19:47.960Z,94.03
2018-02-18T03:20:47.992Z,94.03
2018-02-18T03:22:40.974Z,94.32
2018-02-18T03:23:41.020Z,94.22
2018-02-18T03:25:34.013Z,94.32
2018-02-18T03:26:34.067Z,94.32
2018-02-18T03:28:27.034Z,94.60
2018-02-18T03:29:27.080Z,94.41
2018-02-18T03:31:20.034Z,93.75
2018-02-18T03:32:20.088Z,93.37
2018-02-18T03:34:13.075Z,93.75
2018-02-18T03:35:13.108Z,94.13
2018-02-18T03:37:06.075Z,94.13
2018-02-18T03:38:06.125Z,94.60
2018-02-18T03:39:59.166Z,94.32
2018-02-18T03:40:59.147Z,94.89
2018-02-18T03:42:52.115Z,94.22
2018-02-18T03:43:52.169Z,94.22
2018-02-18T03:45:45.156Z,94.13
2018-02-18T03:46:45.242Z,94.13
2018-02-18T03:48:38.208Z,93.75
2018-02-18T03:49:38.205Z,93.94
2018-02-18T03:51:31.179Z,93.94
2018-02-18T03:52:31.225Z,93.66
2018-02-18T03:54:24.212Z,93.66
2018-02-18T03:55:24.243Z,94.13
2018-02-18T03:57:17.211Z,93.47
2018-02-18T03:58:17.265Z,93.75
2018-02-18T04:00:10.254Z,93.75
2018-02-18T04:01:10.284Z,93.94
2018-02-18T04:03:03.265Z,93.94
2018-02-18T04:04:03.313Z,93.56
2018-02-18T04:05:56.301Z,93.18
2018-02-18T04:06:56.334Z,93.66
2018-02-18T04:08:49.318Z,94.32
2018-02-18T04:09:49.349Z,94.03
2018-02-18T04:11:42.329Z,93.66
2018-02-18T04:12:42.374Z,93.84
2018-02-18T04:14:35.367Z,93.18
2018-02-18T04:15:35.398Z,93.47
2018-02-18T04:17:28.368Z,94.13
2018-02-18T04:18:28.415Z,94.89
2018-02-18T04:20:21.410Z,94.41
2018-02-18T04:21:21.439Z,94.22
2018-02-18T04:23:14.434Z,93.75
2018-02-18T04:24:14.459Z,93.18
2018-02-18T04:26:07.447Z,93.84
2018-02-18T04:27:07.480Z,93.66
2018-02-18T04:29:00.474Z,93.66
2018-02-18T04:30:00.499Z,94.03
2018-02-18T04:31:53.470Z,93.56
2018-02-18T04:32:53.520Z,93.75
2018-02-18T04:34:46.512Z,93.28
2018-02-18T04:35:46.539Z,93.09
2018-02-18T04:37:39.510Z,93.47
2018-02-18T04:38:39.563Z,93.18
2018-02-18T04:40:44.167Z,93.18
2018-02-18T04:41:44.194Z,93.37
2018-02-18T04:43:37.163Z,92.80
2018-02-18T04:44:37.214Z,92.99
2018-02-18T04:46:30.210Z,92.99
2018-02-18T04:47:30.236Z,92.71
2018-02-18T04:49:23.222Z,92.52
2018-02-18T04:50:23.251Z,92.33
2018-02-18T04:52:16.237Z,92.71
2018-02-18T04:53:16.274Z,92.71
2018-02-18T04:55:09.259Z,92.05
2018-02-18T04:56:09.292Z,92.90
2018-02-18T04:58:02.256Z,92.80
2018-02-18T04:59:02.317Z,92.52
2018-02-18T05:00:55.300Z,91.58
2018-02-18T05:01:55.327Z,91.86
2018-02-18T05:03:48.295Z,91.77
2018-02-18T05:04:48.347Z,91.58
2018-02-18T05:06:41.342Z,91.86
2018-02-18T05:07:41.366Z,91.58
2018-02-18T05:09:34.352Z,92.52
2018-02-18T05:10:34.384Z,92.99
2018-02-18T05:12:27.355Z,93.47
2018-02-18T05:13:27.408Z,94.03
2018-02-18T05:15:20.393Z,93.56
2018-02-18T05:16:20.430Z,92.90
2018-02-18T05:18:13.392Z,93.84
2018-02-18T05:19:13.442Z,93.84
2018-02-18T05:21:06.464Z,93.75
2018-02-18T05:22:06.466Z,93.94
2018-02-18T05:23:59.541Z,93.37
2018-02-18T05:24:59.478Z,93.47
2018-02-18T05:26:52.470Z,93.18
2018-02-18T05:27:52.499Z,93.66
2018-02-18T05:29:45.531Z,92.90
2018-02-18T05:30:45.519Z,92.33
2018-02-18T05:32:38.486Z,92.33
2018-02-18T05:33:38.537Z,92.71
2018-02-18T05:35:31.523Z,92.33
2018-02-18T05:36:31.554Z,92.99
2018-02-18T05:38:24.522Z,92.99
2018-02-18T05:39:24.573Z,92.90
2018-02-18T05:41:18.074Z,92.71
2018-02-18T05:42:18.317Z,93.18
2018-02-18T05:44:11.092Z,92.99
2018-02-18T05:45:11.120Z,93.09
2018-02-18T05:47:04.623Z,93.28
2018-02-18T05:48:04.146Z,93.09
2018-02-18T05:49:57.149Z,92.43
2018-02-18T05:50:57.160Z,92.52
2018-02-18T05:52:50.124Z,92.33
2018-02-18T05:53:50.177Z,92.33
2018-02-18T05:55:43.164Z,92.61
2018-02-18T05:56:43.194Z,92.71
2018-02-18T05:58:36.170Z,92.71
2018-02-18T05:59:36.214Z,92.43
2018-02-18T06:01:29.219Z,92.99
2018-02-18T06:02:29.235Z,92.90
2018-02-18T06:04:22.214Z,92.57
2018-02-18T06:05:22.250Z,92.47
2018-02-18T06:07:15.256Z,92.71
2018-02-18T06:08:15.286Z,92.76
2018-02-18T06:10:08.292Z,92.29
2018-02-18T06:11:08.325Z,92.57
2018-02-18T06:13:01.270Z,92.85
2018-02-18T06:14:01.311Z,92.80
2018-02-18T06:15:54.300Z,91.58
2018-02-18T06:16:54.354Z,91.20
2018-02-18T06:18:47.297Z,91.49
2018-02-18T06:19:47.350Z,91.77
2018-02-18T06:21:40.337Z,92.90
2018-02-18T06:22:40.384Z,93.47
2018-02-18T06:24:33.340Z,93.75
2018-02-18T06:25:33.395Z,93.56
2018-02-18T06:27:26.386Z,93.75
2018-02-18T06:28:26.412Z,93.75
2018-02-18T06:30:19.403Z,94.22
2018-02-18T06:31:19.434Z,94.41
2018-02-18T06:33:12.403Z,93.18
2018-02-18T06:34:12.458Z,93.47
2018-02-18T06:36:05.448Z,92.99
2018-02-18T06:37:05.479Z,92.71
2018-02-18T06:38:58.448Z,93.66
2018-02-18T06:39:58.541Z,94.41
2018-02-18T06:41:51.504Z,94.60
2018-02-18T06:42:51.530Z,94.41
2018-02-18T06:44:44.497Z,95.54
2018-02-18T06:45:44.549Z,95.26
2018-02-18T06:47:37.540Z,95.17
2018-02-18T06:48:37.570Z,95.17
2018-02-18T06:50:30.556Z,94.89
2018-02-18T06:51:30.588Z,94.60
2018-02-18T06:53:23.556Z,94.41
2018-02-18T06:54:23.606Z,93.56
2018-02-18T06:56:16.596Z,93.09
2018-02-18T06:57:16.626Z,92.61
2018-02-18T06:59:09.594Z,92.33
2018-02-18T07:00:09.932Z,92.33
2018-02-18T07:02:02.651Z,92.90
2018-02-18T07:03:02.680Z,92.90
2018-02-18T07:04:55.656Z,94.22
2018-02-18T07:05:55.718Z,94.13
2018-02-18T07:07:48.693Z,94.03
2018-02-18T07:08:48.722Z,93.47
2018-02-18T07:10:41.711Z,94.13
2018-02-18T07:11:41.739Z,94.32
2018-02-18T07:13:34.707Z,94.41
2018-02-18T07:14:34.757Z,94.22
2018-02-18T07:16:27.744Z,95.26
2018-02-18T07:17:27.797Z,95.07
2018-02-18T07:19:20.753Z,94.89
2018-02-18T07:20:20.792Z,94.70
2018-02-18T07:22:13.956Z,94.41
2018-02-18T07:23:13.818Z,94.79
2018-02-18T07:25:07.336Z,94.60
2018-02-18T07:26:06.835Z,94.60
2018-02-18T07:27:59.825Z,93.37
2018-02-18T07:28:59.855Z,93.47
2018-02-18T07:30:52.845Z,93.47
2018-02-18T07:31:52.876Z,93.37
2018-02-18T07:33:45.847Z,94.03
2018-02-18T07:34:45.894Z,94.41
2018-02-18T07:36:38.886Z,94.51
2018-02-18T07:37:38.962Z,94.32
2018-02-18T07:39:31.881Z,94.41
2018-02-18T07:40:31.948Z,94.41
2018-02-18T07:42:24.926Z,93.66
2018-02-18T07:43:24.954Z,92.61
2018-02-18T07:45:17.922Z,93.28
2018-02-18T07:46:17.972Z,91.49
2018-02-18T07:48:11.006Z,91.25
2018-02-18T07:49:11.040Z,90.59
2018-02-18T07:51:04.034Z,89.92
2018-02-18T07:52:04.062Z,89.17
2018-02-18T07:53:57.037Z,88.89
2018-02-18T07:54:57.083Z,89.03
2018-02-18T07:56:50.072Z,90.86
2018-02-18T07:57:50.102Z,97.82
2018-02-18T07:59:43.084Z,99.99
2018-02-18T08:00:43.170Z,99.99
2018-02-18T08:02:36.110Z,99.99
2018-02-18T08:03:36.143Z,97.26
2018-02-18T08:05:29.115Z,92.66
2018-02-18T08:06:29.166Z,90.38
2018-02-18T08:08:22.159Z,89.19
2018-02-18T08:09:22.187Z,87.19
2018-02-18T08:11:15.181Z,83.44
2018-02-18T08:12:15.213Z,82.58
2018-02-18T08:14:08.194Z,81.87
2018-02-18T08:15:08.240Z,83.39
2018-02-18T08:17:01.231Z,85.58
2018-02-18T08:18:01.265Z,84.25
2018-02-18T08:19:54.247Z,81.73
2018-02-18T08:20:54.302Z,78.06
2018-02-18T08:22:47.296Z,74.48
2018-02-18T08:23:47.341Z,74.73
2018-02-18T08:25:40.305Z,72.58
2018-02-18T08:26:40.382Z,72.83
2018-02-18T08:28:33.377Z,75.68
2018-02-18T08:29:33.393Z,75.05
2018-02-18T08:31:26.395Z,73.11
2018-02-18T08:32:26.429Z,74.07
2018-02-18T08:34:19.406Z,73.91
2018-02-18T08:35:19.458Z,71.72
2018-02-18T08:37:12.457Z,70.30
2018-02-18T08:38:12.492Z,70.39
2018-02-18T08:40:05.475Z,70.43
2018-02-18T08:41:05.552Z,68.52
2018-02-18T08:42:58.547Z,68.33
2018-02-18T08:43:58.554Z,68.52
2018-02-18T08:45:51.542Z,67.41
2018-02-18T08:46:51.588Z,65.89
2018-02-18T08:48:44.596Z,66.33
2018-02-18T08:49:44.801Z,67.47
2018-02-18T08:51:37.630Z,67.32
2018-02-18T08:52:37.668Z,66.72
2018-02-18T08:54:30.644Z,69.73
2018-02-18T08:55:30.700Z,71.25
2018-02-18T08:57:23.709Z,75.93
2018-02-18T08:58:23.744Z,77.91
2018-02-18T09:00:16.722Z,73.11
2018-02-18T09:01:16.778Z,74.29
2018-02-18T09:03:09.826Z,76.29
2018-02-18T09:04:09.810Z,71.57
2018-02-18T09:06:02.798Z,70.62
2018-02-18T09:07:02.845Z,70.05
2018-02-18T09:08:55.867Z,69.51
2018-02-18T09:09:55.881Z,68.56
2018-02-18T09:11:48.924Z,67.29
2018-02-18T09:12:48.919Z,67.51
2018-02-18T09:14:41.920Z,66.91
2018-02-18T09:15:41.960Z,67.00
2018-02-18T09:17:34.960Z,71.88
2018-02-18T09:18:34.998Z,74.60
2018-02-18T09:20:27.994Z,79.41
2018-02-18T09:21:28.039Z,82.29
2018-02-18T09:23:21.052Z,84.82
2018-02-18T09:24:21.103Z,86.05
2018-02-18T09:26:14.096Z,87.10
2018-02-18T09:27:14.168Z,88.34
2018-02-18T09:29:07.178Z,87.91
2018-02-18T09:30:07.162Z,89.20
2018-02-18T09:32:00.160Z,90.29
2018-02-18T09:33:00.195Z,91.38
2018-02-18T09:34:53.183Z,92.90
2018-02-18T09:35:53.225Z,92.71
2018-02-18T09:37:46.283Z,93.80
2018-02-18T09:38:46.262Z,94.04
2018-02-18T09:40:39.325Z,95.26
2018-02-18T09:41:39.292Z,94.98
2018-02-18T09:43:32.296Z,95.88
2018-02-18T09:44:32.333Z,94.84
2018-02-18T09:46:25.409Z,95.26
2018-02-18T09:47:25.474Z,96.03
2018-02-18T09:49:18.436Z,96.41
2018-02-18T09:50:18.478Z,96.41
2018-02-18T09:52:11.422Z,96.50
2018-02-18T09:53:11.436Z,95.45
2018-02-18T09:55:04.486Z,96.50
2018-02-18T09:56:04.516Z,96.88
2018-02-18T09:57:57.472Z,96.88
2018-02-18T09:58:57.480Z,96.36
2018-02-18T10:00:50.493Z,96.12
2018-02-18T10:01:50.656Z,95.65
2018-02-18T10:03:43.524Z,98.21
2018-02-18T10:04:43.544Z,97.07
2018-02-18T10:06:36.514Z,96.59
2018-02-18T10:07:36.586Z,96.50
2018-02-18T10:09:29.605Z,96.45
2018-02-18T10:10:29.600Z,97.21
2018-02-18T10:12:22.624Z,97.88
2018-02-18T10:13:22.641Z,96.08
2018-02-18T10:15:15.628Z,96.08
2018-02-18T10:16:15.669Z,96.64
2018-02-18T10:18:08.671Z,97.02
2018-02-18T10:19:08.702Z,97.69
2018-02-18T10:21:01.706Z,97.21
2018-02-18T10:22:01.948Z,96.17
2018-02-18T10:23:54.735Z,97.59
2018-02-18T10:24:54.783Z,96.45
2018-02-18T10:26:47.746Z,97.88
2018-02-18T10:27:47.801Z,96.92
2018-02-18T10:29:40.895Z,97.12
2018-02-18T10:30:40.842Z,97.12
2018-02-18T10:32:33.853Z,97.97
2018-02-18T10:33:33.888Z,97.12
2018-02-18T10:35:26.882Z,96.83
2018-02-18T10:36:26.904Z,96.64
2018-02-18T10:38:19.906Z,97.83
2018-02-18T10:39:19.938Z,98.30
2018-02-18T10:41:12.918Z,98.21
2018-02-18T10:42:12.965Z,96.69
2018-02-18T10:44:05.983Z,96.97
2018-02-18T10:45:06.030Z,96.50
2018-02-18T10:46:58.996Z,96.97
2018-02-18T10:47:59.968Z,96.88
2018-02-18T10:49:53.129Z,96.97
2018-02-18T10:50:54.425Z,96.31
2018-02-18T10:52:49.025Z,96.12
2018-02-18T10:53:47.102Z,96.78
2018-02-18T10:55:40.556Z,97.45
2018-02-18T10:56:39.865Z,96.36
2018-02-18T10:58:33.193Z,95.27
2018-02-18T10:59:33.141Z,94.23
2018-02-18T11:01:27.268Z,95.65
2018-02-18T11:02:26.040Z,94.98
2018-02-18T11:04:21.347Z,94.13
2018-02-18T11:05:21.479Z,94.79
2018-02-18T11:07:16.716Z,94.98
2018-02-18T11:08:17.096Z,94.98
2018-02-18T11:10:08.809Z,94.79
2018-02-18T11:11:08.684Z,94.98
2018-02-18T11:13:01.991Z,94.70
2018-02-18T11:14:01.682Z,94.51
2018-02-18T11:15:54.789Z,93.99
2018-02-18T11:16:54.782Z,94.46
2018-02-18T11:18:47.725Z,94.18
2018-02-18T11:19:47.758Z,94.37
2018-02-18T11:21:40.732Z,93.04
2018-02-18T11:22:40.788Z,93.51
2018-02-18T11:24:33.829Z,94.18
2018-02-18T11:25:33.818Z,94.37
2018-02-18T11:27:26.829Z,94.37
2018-02-18T11:28:26.850Z,93.89
2018-02-18T11:30:19.850Z,93.80
2018-02-18T11:31:19.889Z,92.85
2018-02-18T11:33:14.589Z,92.66
2018-02-18T11:34:14.484Z,93.04
2018-02-18T11:36:07.454Z,92.94
2018-02-18T11:37:07.506Z,92.66
2018-02-18T11:39:00.503Z,93.41
2018-02-18T11:40:00.547Z,93.13
2018-02-18T11:41:53.544Z,92.71
2018-02-18T11:42:53.580Z,92.23
2018-02-18T11:44:46.617Z,92.32
2018-02-18T11:45:46.623Z,90.80
2018-02-18T11:47:39.595Z,91.47
2018-02-18T11:48:39.658Z,91.47
2018-02-18T11:50:33.159Z,91.56
2018-02-18T11:51:33.186Z,91.56
2018-02-18T11:53:26.191Z,91.19
2018-02-18T11:54:26.217Z,90.61
2018-02-18T11:56:19.408Z,89.19
2018-02-18T11:57:19.385Z,89.67
2018-02-18T11:59:12.338Z,90.80
2018-02-18T12:00:12.297Z,91.56
2018-02-18T12:02:05.321Z,88.24
2018-02-18T12:03:05.323Z,88.43
2018-02-18T12:04:58.318Z,89.28
2018-02-18T12:05:58.353Z,89.09
2018-02-18T12:07:51.331Z,87.76
2018-02-18T12:08:51.393Z,87.52
2018-02-18T12:10:44.389Z,86.47
2018-02-18T12:11:44.427Z,86.00
2018-02-18T12:13:37.480Z,83.15
2018-02-18T12:14:37.517Z,82.87
2018-02-18T12:16:30.504Z,83.53
2018-02-18T12:17:30.640Z,82.58
2018-02-18T12:19:23.508Z,80.11
2018-02-18T12:20:23.650Z,80.77
2018-02-18T12:22:16.662Z,81.16
2018-02-18T12:23:16.824Z,80.77
2018-02-18T12:25:09.597Z,78.97
2018-02-18T12:26:09.641Z,79.16
2018-02-18T12:28:02.735Z,77.83
2018-02-18T12:29:02.740Z,79.06
2018-02-18T12:30:55.680Z,76.97
2018-02-18T12:31:55.700Z,77.73
2018-02-18T12:33:48.696Z,76.78
2018-02-18T12:34:48.739Z,77.45
2018-02-18T12:36:41.715Z,77.36
2018-02-18T12:37:41.781Z,77.07
2018-02-18T12:39:34.811Z,76.50
2018-02-18T12:40:34.815Z,76.88
2018-02-18T12:42:27.854Z,74.88
2018-02-18T12:43:27.878Z,77.55
2018-02-18T12:45:20.878Z,75.74
2018-02-18T12:46:20.887Z,75.84
2018-02-18T12:48:13.914Z,74.22
2018-02-18T12:49:13.913Z,74.88
2018-02-18T12:51:06.925Z,74.44
2018-02-18T12:52:06.983Z,74.35
2018-02-18T12:54:00.566Z,74.26
2018-02-18T12:55:00.514Z,72.74
2018-02-18T12:56:53.470Z,72.07
2018-02-18T12:57:53.598Z,71.31
2018-02-18T12:59:46.563Z,71.50
2018-02-18T13:00:46.609Z,73.02
2018-02-18T13:02:39.595Z,71.22
2018-02-18T13:03:39.650Z,71.22
2018-02-18T13:05:32.624Z,70.26
2018-02-18T13:06:32.652Z,69.21
2018-02-18T13:08:25.674Z,70.26
2018-02-18T13:09:25.694Z,70.26
2018-02-18T13:11:18.751Z,69.50
2018-02-18T13:12:19.261Z,70.74
2018-02-18T13:14:11.763Z,70.64
2018-02-18T13:15:11.931Z,70.42
2018-02-18T13:17:04.885Z,70.32
2018-02-18T13:18:04.921Z,69.46
2018-02-18T13:19:57.841Z,70.70
2018-02-18T13:20:57.933Z,71.66
2018-02-18T13:22:50.953Z,71.75
2018-02-18T13:23:50.948Z,71.18
2018-02-18T13:25:43.899Z,71.46
2018-02-18T13:26:43.960Z,72.13
2018-02-18T13:28:37.020Z,72.32
2018-02-18T13:29:36.978Z,71.94
2018-02-18T13:31:29.976Z,70.51
2018-02-18T13:32:30.128Z,70.51
2018-02-18T13:34:23.009Z,71.18
2018-02-18T13:35:23.050Z,70.83
2018-02-18T13:37:17.230Z,70.74
2018-02-18T13:38:19.344Z,68.84
2018-02-18T13:40:10.588Z,68.74
2018-02-18T13:41:10.636Z,67.41
2018-02-18T13:43:03.639Z,65.60
2018-02-18T13:44:03.688Z,65.41
2018-02-18T13:45:56.792Z,65.41
2018-02-18T13:46:56.921Z,64.27
2018-02-18T13:48:49.907Z,65.60
2018-02-18T13:49:49.869Z,64.84
2018-02-18T13:51:42.827Z,65.60
2018-02-18T13:52:42.843Z,65.80
2018-02-18T13:54:35.789Z,65.03
2018-02-18T13:55:35.929Z,65.70
2018-02-18T13:57:28.871Z,64.75
2018-02-18T13:58:28.889Z,64.08
2018-02-18T14:00:21.862Z,65.60
2018-02-18T14:01:21.920Z,66.46
2018-02-18T14:03:14.941Z,67.03
2018-02-18T14:04:14.924Z,68.23
2018-02-18T14:06:07.905Z,68.84
2018-02-18T14:07:07.959Z,69.46
2018-02-18T14:09:00.968Z,70.61
2018-02-18T14:10:01.008Z,70.07
2018-02-18T14:11:54.008Z,69.46
2018-02-18T14:12:54.042Z,69.37
2018-02-18T14:14:47.038Z,70.13
2018-02-18T14:15:47.076Z,70.51
2018-02-18T14:17:40.056Z,70.23
2018-02-18T14:18:40.112Z,69.69
2018-02-18T14:20:33.117Z,70.17
2018-02-18T14:21:33.149Z,70.17
2018-02-18T14:23:26.134Z,70.54
2018-02-18T14:24:26.212Z,70.42
2018-02-18T14:26:19.227Z,70.26
2018-02-18T14:27:19.224Z,71.12
2018-02-18T14:29:12.259Z,71.31
2018-02-18T14:30:12.280Z,70.36
2018-02-18T14:32:05.448Z,70.23
2018-02-18T14:33:05.503Z,70.74
2018-02-18T14:34:58.508Z,71.31
2018-02-18T14:35:58.538Z,71.22
2018-02-18T14:37:51.527Z,70.54
2018-02-18T14:38:51.579Z,71.41
2018-02-18T14:40:44.623Z,70.17
2018-02-18T14:41:44.619Z,70.36
2018-02-18T14:43:37.681Z,70.17
2018-02-18T14:44:37.685Z,70.54
2018-02-18T14:46:30.750Z,71.41
2018-02-18T14:47:30.804Z,70.74
2018-02-18T14:49:23.731Z,69.31
2018-02-18T14:50:23.752Z,68.93
2018-02-18T14:52:16.778Z,70.54
2018-02-18T14:53:16.769Z,70.26
2018-02-18T14:55:09.747Z,69.31
2018-02-18T14:56:09.805Z,69.21
2018-02-18T14:58:02.809Z,70.17
2018-02-18T14:59:02.846Z,70.45
2018-02-18T15:00:55.821Z,68.99
2018-02-18T15:01:55.891Z,69.37
2018-02-18T15:03:49.390Z,69.46
2018-02-18T15:04:49.424Z,68.90
2018-02-18T15:06:42.409Z,70.23
2018-02-18T15:07:42.463Z,70.70
2018-02-18T15:09:35.469Z,70.13
2018-02-18T15:10:35.491Z,69.56
2018-02-18T15:12:28.469Z,69.09
2018-02-18T15:13:28.528Z,69.46
2018-02-18T15:15:21.576Z,70.32
2018-02-18T15:16:21.607Z,70.13
2018-02-18T15:18:14.604Z,70.23
2018-02-18T15:19:14.640Z,71.56
2018-02-18T15:21:07.636Z,71.27
2018-02-18T15:22:07.687Z,71.18
2018-02-18T15:24:00.714Z,70.79
2018-02-18T15:25:00.738Z,71.75
2018-02-18T15:26:53.767Z,72.51
2018-02-18T15:27:53.841Z,72.51
2018-02-18T15:29:46.781Z,72.51
2018-02-18T15:30:46.810Z,73.08
2018-02-18T15:32:39.804Z,72.03
2018-02-18T15:33:39.855Z,72.51
2018-02-18T15:35:32.849Z,74.12
2018-02-18T15:36:32.897Z,73.27
2018-02-18T15:38:26.019Z,73.36
2018-02-18T15:39:25.940Z,73.84
2018-02-18T15:41:18.918Z,74.69
2018-02-18T15:42:18.955Z,74.88
2018-02-18T15:44:11.944Z,75.79
2018-02-18T15:45:11.990Z,74.31
2018-02-18T15:47:05.148Z,74.94
2018-02-18T15:48:05.162Z,76.08
2018-02-18T15:49:58.247Z,74.94
2018-02-18T15:50:58.064Z,74.85
2018-02-18T15:52:51.043Z,76.08
2018-02-18T15:53:51.102Z,76.46
2018-02-18T15:55:44.102Z,75.79
2018-02-18T15:56:44.139Z,75.89
2018-02-18T15:58:37.129Z,74.85
2018-02-18T15:59:37.186Z,74.75
2018-02-18T16:01:30.192Z,75.79
2018-02-18T16:02:30.224Z,75.79
2018-02-18T16:04:23.220Z,76.84
2018-02-18T16:05:23.260Z,77.89
2018-02-18T16:07:16.272Z,78.08
2018-02-18T16:08:16.292Z,78.36
2018-02-18T16:10:09.272Z,77.51
2018-02-18T16:11:09.327Z,78.27
2018-02-18T16:13:02.333Z,78.45
2018-02-18T16:14:02.378Z,78.83
2018-02-18T16:15:55.350Z,78.93
2018-02-18T16:16:55.437Z,80.64
2018-02-18T16:18:48.399Z,79.60
2018-02-18T16:19:48.440Z,79.41
2018-02-18T16:21:41.491Z,80.26
2018-02-18T16:22:41.624Z,80.83
2018-02-18T16:24:34.450Z,81.17
2018-02-18T16:25:34.504Z,81.45
2018-02-18T16:27:27.513Z,81.07
2018-02-18T16:28:27.555Z,82.21
2018-02-18T16:30:20.539Z,80.79
2018-02-18T16:31:20.809Z,81.55
2018-02-18T16:33:13.595Z,81.65
2018-02-18T16:34:13.631Z,81.36
2018-02-18T16:36:06.608Z,81.26
2018-02-18T16:37:06.664Z,81.84
2018-02-18T16:38:59.697Z,84.11
2018-02-18T16:39:59.700Z,83.64
2018-02-18T16:41:52.685Z,84.78
2018-02-18T16:42:52.730Z,84.11
2018-02-18T16:44:45.755Z,84.49
2018-02-18T16:45:45.770Z,84.87
2018-02-18T16:47:38.815Z,85.44
2018-02-18T16:48:38.804Z,84.87
2018-02-18T16:50:31.804Z,85.78
2018-02-18T16:51:31.839Z,85.11
2018-02-18T16:53:24.861Z,87.01
2018-02-18T16:54:24.988Z,87.20
2018-02-18T16:56:17.881Z,88.15
2018-02-18T16:57:17.914Z,87.96
2018-02-18T16:59:10.963Z,89.48
2018-02-18T17:00:11.321Z,89.29
2018-02-18T17:02:04.246Z,90.62
2018-02-18T17:03:04.089Z,90.95
2018-02-18T17:04:57.173Z,91.71
2018-02-18T17:05:57.065Z,92.28
2018-02-18T17:07:50.199Z,92.09
2018-02-18T17:08:50.160Z,92.09
2018-02-18T17:10:43.191Z,92.38
2018-02-18T17:11:43.104Z,91.80
2018-02-18T17:13:36.090Z,91.42
2018-02-18T17:14:36.124Z,91.24
2018-02-18T17:16:29.125Z,91.80
2018-02-18T17:17:29.216Z,91.99
2018-02-18T17:19:22.402Z,92.57
2018-02-18T17:20:22.235Z,92.28
2018-02-18T17:22:15.240Z,91.24
2018-02-18T17:23:15.467Z,91.33
2018-02-18T17:25:08.540Z,92.38
2018-02-18T17:26:08.572Z,91.90
2018-02-18T17:28:01.519Z,92.76
2018-02-18T17:29:01.417Z,92.57
2018-02-18T17:30:54.572Z,93.32
2018-02-18T17:31:54.408Z,93.23
2018-02-18T17:33:47.452Z,92.28
2018-02-18T17:34:47.436Z,91.99
2018-02-18T17:36:40.447Z,92.09
2018-02-18T17:37:40.458Z,92.66
2018-02-18T17:39:33.574Z,93.37
2018-02-18T17:40:33.514Z,93.46
2018-02-18T17:42:26.534Z,94.04
2018-02-18T17:43:26.556Z,94.04
2018-02-18T17:45:19.569Z,94.42
2018-02-18T17:46:19.556Z,94.42
2018-02-18T17:48:12.590Z,94.79
2018-02-18T17:49:12.616Z,95.17
2018-02-18T17:51:06.075Z,95.26
2018-02-18T17:52:06.123Z,94.60
2018-02-18T17:53:59.137Z,95.26
2018-02-18T17:54:59.226Z,94.93
2018-02-18T17:56:52.183Z,95.69
2018-02-18T17:57:52.200Z,94.93
2018-02-18T17:59:45.183Z,95.79
2018-02-18T18:00:45.244Z,95.12
2018-02-18T18:02:38.272Z,94.84
2018-02-18T18:03:38.273Z,95.41
2018-02-18T18:05:31.240Z,95.60
2018-02-18T18:06:31.312Z,95.31
2018-02-18T18:08:24.304Z,96.26
2018-02-18T18:09:24.336Z,95.31
2018-02-18T18:11:17.341Z,95.88
2018-02-18T18:12:17.369Z,95.50
2018-02-18T18:14:10.394Z,95.79
2018-02-18T18:15:10.433Z,96.36
2018-02-18T18:17:03.413Z,96.26
2018-02-18T18:18:03.462Z,95.88
2018-02-18T18:19:56.458Z,95.31
2018-02-18T18:20:56.492Z,96.26
2018-02-18T18:22:49.495Z,95.88
2018-02-18T18:23:49.524Z,96.07
2018-02-18T18:25:42.508Z,96.21
2018-02-18T18:26:42.554Z,95.60
2018-02-18T18:28:35.551Z,96.69
2018-02-18T18:29:35.585Z,95.88
2018-02-18T18:31:28.567Z,95.93
2018-02-18T18:32:28.691Z,96.12
2018-02-18T18:34:21.676Z,95.83